createdAt,value
2019-01-15T00:00:15.438Z,977.25
2019-01-15T00:01:15.423Z,977.26
2019-01-15T00:02:15.407Z,977.29
2019-01-15T00:03:15.388Z,977.32
2019-01-15T00:04:15.373Z,977.29
2019-01-15T00:05:15.358Z,977.30
2019-01-15T00:06:15.343Z,977.32
2019-01-15T00:07:15.325Z,977.34
2019-01-15T00:08:15.308Z,977.35
2019-01-15T00:09:15.293Z,977.39
2019-01-15T00:10:15.277Z,977.40
2019-01-15T00:11:15.259Z,977.43
2019-01-15T00:12:15.244Z,977.46
2019-01-15T00:13:15.238Z,977.44
2019-01-15T00:14:15.210Z,977.49
2019-01-15T00:15:15.194Z,977.44
2019-01-15T00:16:15.178Z,977.44
2019-01-15T00:17:15.162Z,977.48
2019-01-15T00:18:15.147Z,977.50
2019-01-15T00:19:15.130Z,977.53
2019-01-15T00:20:15.122Z,977.55
2019-01-15T00:21:15.098Z,977.56
2019-01-15T00:22:15.082Z,977.54
2019-01-15T00:23:15.065Z,977.59
2019-01-15T00:24:15.050Z,977.60
2019-01-15T00:25:15.035Z,977.65
2019-01-15T00:26:15.018Z,977.67
2019-01-15T00:27:15.002Z,977.68
2019-01-15T00:28:14.986Z,977.65
2019-01-15T00:29:14.971Z,977.70
2019-01-15T00:30:14.955Z,977.69
2019-01-15T00:31:14.936Z,977.74
2019-01-15T00:32:14.921Z,977.77
2019-01-15T00:33:14.906Z,977.75
2019-01-15T00:34:14.887Z,977.76
2019-01-15T00:35:14.871Z,977.71
2019-01-15T00:36:14.857Z,977.75
2019-01-15T00:37:14.839Z,977.76
2019-01-15T00:38:14.824Z,977.76
2019-01-15T00:39:14.806Z,977.74
2019-01-15T00:40:14.798Z,977.78
2019-01-15T00:41:14.774Z,977.73
2019-01-15T00:42:15.537Z,977.78
2019-01-15T00:43:14.741Z,977.76
2019-01-15T00:44:14.726Z,977.79
2019-01-15T00:45:14.710Z,977.75
2019-01-15T00:46:14.695Z,977.75
2019-01-15T00:47:14.676Z,977.78
2019-01-15T00:48:14.660Z,977.78
2019-01-15T00:49:14.646Z,977.76
2019-01-15T00:50:14.628Z,977.81
2019-01-15T00:51:14.611Z,977.79
2019-01-15T00:52:14.596Z,977.79
2019-01-15T00:53:14.581Z,977.84
2019-01-15T00:54:14.564Z,977.87
2019-01-15T00:55:14.548Z,977.89
2019-01-15T00:56:14.530Z,977.85
2019-01-15T00:57:14.515Z,977.88
2019-01-15T00:58:14.503Z,977.89
2019-01-15T00:59:14.481Z,977.91
2019-01-15T01:00:14.465Z,977.96
2019-01-15T01:01:14.451Z,977.98
2019-01-15T01:02:14.435Z,978.04
2019-01-15T01:03:14.418Z,978.05
2019-01-15T01:04:14.410Z,978.10
2019-01-15T01:05:14.385Z,978.11
2019-01-15T01:06:14.368Z,978.12
2019-01-15T01:07:14.352Z,978.08
2019-01-15T01:08:14.334Z,978.20
2019-01-15T01:09:14.321Z,978.18
2019-01-15T01:10:14.301Z,978.24
2019-01-15T01:11:14.286Z,978.32
2019-01-15T01:12:14.273Z,978.33
2019-01-15T01:13:14.253Z,978.35
2019-01-15T01:14:14.236Z,978.38
2019-01-15T01:15:14.220Z,978.36
2019-01-15T01:16:14.205Z,978.34
2019-01-15T01:17:14.187Z,978.37
2019-01-15T01:18:14.173Z,978.42
2019-01-15T01:19:14.154Z,978.38
2019-01-15T01:20:14.140Z,978.37
2019-01-15T01:21:14.124Z,978.36
2019-01-15T01:22:14.108Z,978.38
2019-01-15T01:23:14.091Z,978.36
2019-01-15T01:24:14.074Z,978.39
2019-01-15T01:25:14.057Z,978.39
2019-01-15T01:26:14.041Z,978.40
2019-01-15T01:27:14.024Z,978.41
2019-01-15T01:28:14.011Z,978.44
2019-01-15T01:29:13.990Z,978.45
2019-01-15T01:30:13.978Z,978.47
2019-01-15T01:31:13.960Z,978.49
2019-01-15T01:32:13.942Z,978.55
2019-01-15T01:33:13.925Z,978.54
2019-01-15T01:34:13.910Z,978.52
2019-01-15T01:35:13.892Z,978.58
2019-01-15T01:36:13.876Z,978.59
2019-01-15T01:37:13.860Z,978.60
2019-01-15T01:38:13.846Z,978.57
2019-01-15T01:39:13.828Z,978.61
2019-01-15T01:40:13.811Z,978.60
2019-01-15T01:41:13.797Z,978.63
2019-01-15T01:42:13.781Z,978.61
2019-01-15T01:43:13.761Z,978.61
2019-01-15T01:44:13.747Z,978.61
2019-01-15T01:45:13.731Z,978.58
2019-01-15T01:46:13.713Z,978.59
2019-01-15T01:47:13.700Z,978.58
2019-01-15T01:48:13.682Z,978.61
2019-01-15T01:49:13.666Z,978.59
2019-01-15T01:50:13.650Z,978.55
2019-01-15T01:51:13.633Z,978.58
2019-01-15T01:52:13.616Z,978.57
2019-01-15T01:53:13.600Z,978.54
2019-01-15T01:54:13.582Z,978.55
2019-01-15T01:55:13.565Z,978.54
2019-01-15T01:56:13.551Z,978.53
2019-01-15T01:57:13.535Z,978.52
2019-01-15T01:58:13.519Z,978.52
2019-01-15T01:59:13.502Z,978.47
2019-01-15T02:00:13.486Z,978.49
2019-01-15T02:01:13.470Z,978.50
2019-01-15T02:02:13.454Z,978.48
2019-01-15T02:03:13.435Z,978.48
2019-01-15T02:04:13.421Z,978.50
2019-01-15T02:05:13.407Z,978.50
2019-01-15T02:06:13.389Z,978.52
2019-01-15T02:07:13.372Z,978.55
2019-01-15T02:08:13.357Z,978.55
2019-01-15T02:09:13.339Z,978.52
2019-01-15T02:10:13.324Z,978.53
2019-01-15T02:11:13.308Z,978.55
2019-01-15T02:12:13.292Z,978.58
2019-01-15T02:13:13.276Z,978.56
2019-01-15T02:14:13.261Z,978.57
2019-01-15T02:15:13.243Z,978.57
2019-01-15T02:16:13.229Z,978.63
2019-01-15T02:17:13.211Z,978.59
2019-01-15T02:18:13.194Z,978.57
2019-01-15T02:19:13.179Z,978.62
2019-01-15T02:20:13.164Z,978.62
2019-01-15T02:21:13.145Z,978.62
2019-01-15T02:22:13.129Z,978.59
2019-01-15T02:23:13.116Z,978.59
2019-01-15T02:24:13.148Z,978.62
2019-01-15T02:25:13.080Z,978.61
2019-01-15T02:26:13.069Z,978.60
2019-01-15T02:27:13.051Z,978.64
2019-01-15T02:28:13.033Z,978.63
2019-01-15T02:29:13.016Z,978.64
2019-01-15T02:30:13.002Z,978.66
2019-01-15T02:31:12.989Z,978.65
2019-01-15T02:32:12.968Z,978.67
2019-01-15T02:33:12.954Z,978.61
2019-01-15T02:34:12.946Z,978.65
2019-01-15T02:35:12.924Z,978.68
2019-01-15T02:36:12.904Z,978.67
2019-01-15T02:37:12.890Z,978.66
2019-01-15T02:38:12.873Z,978.69
2019-01-15T02:39:12.858Z,978.70
2019-01-15T02:40:12.845Z,978.70
2019-01-15T02:41:12.826Z,978.70
2019-01-15T02:42:12.809Z,978.64
2019-01-15T02:43:12.790Z,978.67
2019-01-15T02:44:12.775Z,978.70
2019-01-15T02:45:12.761Z,978.74
2019-01-15T02:46:12.744Z,978.74
2019-01-15T02:47:12.726Z,978.70
2019-01-15T02:48:12.714Z,978.69
2019-01-15T02:49:12.696Z,978.69
2019-01-15T02:50:12.681Z,978.68
2019-01-15T02:51:12.663Z,978.74
2019-01-15T02:52:12.647Z,978.72
2019-01-15T02:53:12.631Z,978.74
2019-01-15T02:54:12.615Z,978.71
2019-01-15T02:55:12.599Z,978.69
2019-01-15T02:56:12.583Z,978.66
2019-01-15T02:57:12.566Z,978.66
2019-01-15T02:58:12.558Z,978.69
2019-01-15T02:59:12.544Z,978.70
2019-01-15T03:00:12.543Z,978.63
2019-01-15T03:01:12.504Z,978.61
2019-01-15T03:02:12.488Z,978.60
2019-01-15T03:03:12.479Z,978.64
2019-01-15T03:04:12.458Z,978.58
2019-01-15T03:05:12.439Z,978.62
2019-01-15T03:06:12.423Z,978.63
2019-01-15T03:07:12.404Z,978.64
2019-01-15T03:08:12.391Z,978.65
2019-01-15T03:09:12.374Z,978.65
2019-01-15T03:10:12.356Z,978.63
2019-01-15T03:11:12.342Z,978.56
2019-01-15T03:12:12.324Z,978.54
2019-01-15T03:13:12.309Z,978.48
2019-01-15T03:14:12.296Z,978.51
2019-01-15T03:15:12.276Z,978.49
2019-01-15T03:16:12.259Z,978.49
2019-01-15T03:17:12.244Z,978.49
2019-01-15T03:18:12.234Z,978.47
2019-01-15T03:19:12.218Z,978.47
2019-01-15T03:20:12.198Z,978.48
2019-01-15T03:21:12.179Z,978.49
2019-01-15T03:22:12.172Z,978.47
2019-01-15T03:23:12.149Z,978.51
2019-01-15T03:24:12.135Z,978.52
2019-01-15T03:25:12.117Z,978.54
2019-01-15T03:26:12.101Z,978.54
2019-01-15T03:27:12.084Z,978.52
2019-01-15T03:28:12.067Z,978.51
2019-01-15T03:29:12.053Z,978.53
2019-01-15T03:30:12.044Z,978.50
2019-01-15T03:31:12.020Z,978.45
2019-01-15T03:32:12.003Z,978.47
2019-01-15T03:33:11.989Z,978.47
2019-01-15T03:34:11.972Z,978.44
2019-01-15T03:35:11.956Z,978.41
2019-01-15T03:36:11.940Z,978.43
2019-01-15T03:37:11.922Z,978.37
2019-01-15T03:38:11.909Z,978.37
2019-01-15T03:39:11.889Z,978.33
2019-01-15T03:40:11.874Z,978.34
2019-01-15T03:41:11.860Z,978.34
2019-01-15T03:42:11.841Z,978.27
2019-01-15T03:43:11.825Z,978.34
2019-01-15T03:44:11.810Z,978.30
2019-01-15T03:45:11.797Z,978.31
2019-01-15T03:46:11.777Z,978.35
2019-01-15T03:47:11.763Z,978.36
2019-01-15T03:48:11.757Z,978.41
2019-01-15T03:49:11.735Z,978.42
2019-01-15T03:50:11.714Z,978.42
2019-01-15T03:51:11.697Z,978.44
2019-01-15T03:52:11.682Z,978.43
2019-01-15T03:53:11.665Z,978.44
2019-01-15T03:54:11.650Z,978.43
2019-01-15T03:55:11.636Z,978.49
2019-01-15T03:56:11.617Z,978.46
2019-01-15T03:57:11.662Z,978.52
2019-01-15T03:58:11.586Z,978.56
2019-01-15T03:59:11.569Z,978.61
2019-01-15T04:00:11.553Z,978.57
2019-01-15T04:01:11.535Z,978.56
2019-01-15T04:02:11.524Z,978.57
2019-01-15T04:03:11.506Z,978.59
2019-01-15T04:04:11.495Z,978.58
2019-01-15T04:05:11.471Z,978.62
2019-01-15T04:06:11.457Z,978.62
2019-01-15T04:07:11.443Z,978.61
2019-01-15T04:09:11.410Z,978.62
2019-01-15T04:10:11.392Z,978.61
2019-01-15T04:11:11.374Z,978.61
2019-01-15T04:12:11.360Z,978.62
2019-01-15T04:13:11.648Z,978.62
2019-01-15T04:14:11.329Z,978.59
2019-01-15T04:15:11.312Z,978.64
2019-01-15T04:16:11.296Z,978.67
2019-01-15T04:17:11.282Z,978.66
2019-01-15T04:18:11.264Z,978.69
2019-01-15T04:19:11.247Z,978.65
2019-01-15T04:20:11.232Z,978.64
2019-01-15T04:21:11.216Z,978.61
2019-01-15T04:22:11.199Z,978.62
2019-01-15T04:23:11.181Z,978.63
2019-01-15T04:24:11.166Z,978.59
2019-01-15T04:25:11.151Z,978.61
2019-01-15T04:26:11.136Z,978.62
2019-01-15T04:27:11.122Z,978.61
2019-01-15T04:28:11.104Z,978.64
2019-01-15T04:29:11.086Z,978.68
2019-01-15T04:30:11.072Z,978.69
2019-01-15T04:31:11.056Z,978.62
2019-01-15T04:32:11.038Z,978.63
2019-01-15T04:33:11.027Z,978.66
2019-01-15T04:34:11.007Z,978.60
2019-01-15T04:35:10.990Z,978.59
2019-01-15T04:36:10.973Z,978.62
2019-01-15T04:37:10.960Z,978.58
2019-01-15T04:38:10.964Z,978.61
2019-01-15T04:39:10.925Z,978.57
2019-01-15T04:40:10.910Z,978.60
2019-01-15T04:41:10.894Z,978.57
2019-01-15T04:42:10.877Z,978.58
2019-01-15T04:43:10.966Z,978.58
2019-01-15T04:44:10.844Z,978.61
2019-01-15T04:45:10.831Z,978.58
2019-01-15T04:46:10.814Z,978.60
2019-01-15T04:47:10.796Z,978.56
2019-01-15T04:48:10.781Z,978.55
2019-01-15T04:49:10.764Z,978.54
2019-01-15T04:50:10.754Z,978.55
2019-01-15T04:51:10.732Z,978.52
2019-01-15T04:52:10.714Z,978.51
2019-01-15T04:53:10.700Z,978.51
2019-01-15T04:54:10.683Z,978.49
2019-01-15T04:55:10.668Z,978.48
2019-01-15T04:56:10.653Z,978.50
2019-01-15T04:57:10.635Z,978.53
2019-01-15T04:58:10.618Z,978.53
2019-01-15T04:59:10.607Z,978.50
2019-01-15T05:00:10.589Z,978.47
2019-01-15T05:01:10.572Z,978.46
2019-01-15T05:02:10.556Z,978.49
2019-01-15T05:03:10.540Z,978.49
2019-01-15T05:04:10.524Z,978.52
2019-01-15T05:05:10.509Z,978.50
2019-01-15T05:06:10.493Z,978.52
2019-01-15T05:07:10.476Z,978.48
2019-01-15T05:08:10.460Z,978.54
2019-01-15T05:09:10.446Z,978.55
2019-01-15T05:10:10.427Z,978.59
2019-01-15T05:11:10.410Z,978.60
2019-01-15T05:12:10.398Z,978.64
2019-01-15T05:13:10.380Z,978.65
2019-01-15T05:14:10.364Z,978.68
2019-01-15T05:15:10.349Z,978.69
2019-01-15T05:16:10.332Z,978.69
2019-01-15T05:17:10.315Z,978.68
2019-01-15T05:18:10.296Z,978.66
2019-01-15T05:19:10.279Z,978.66
2019-01-15T05:20:10.263Z,978.67
2019-01-15T05:21:10.249Z,978.65
2019-01-15T05:22:10.235Z,978.64
2019-01-15T05:23:10.218Z,978.67
2019-01-15T05:24:10.200Z,978.65
2019-01-15T05:25:10.186Z,978.62
2019-01-15T05:26:10.170Z,978.61
2019-01-15T05:27:10.153Z,978.61
2019-01-15T05:28:10.145Z,978.58
2019-01-15T05:29:10.120Z,978.57
2019-01-15T05:30:10.171Z,978.54
2019-01-15T05:31:10.088Z,978.56
2019-01-15T05:32:10.073Z,978.53
2019-01-15T05:33:10.060Z,978.57
2019-01-15T05:34:10.039Z,978.53
2019-01-15T05:35:10.033Z,978.51
2019-01-15T05:36:10.007Z,978.52
2019-01-15T05:37:09.992Z,978.51
2019-01-15T05:38:09.977Z,978.54
2019-01-15T05:39:09.958Z,978.55
2019-01-15T05:40:09.943Z,978.54
2019-01-15T05:41:09.929Z,978.54
2019-01-15T05:42:09.913Z,978.55
2019-01-15T05:43:09.893Z,978.57
2019-01-15T05:44:10.250Z,978.58
2019-01-15T05:45:09.865Z,978.58
2019-01-15T05:46:09.847Z,978.61
2019-01-15T05:47:09.831Z,978.58
2019-01-15T05:48:09.814Z,978.58
2019-01-15T05:49:09.797Z,978.60
2019-01-15T05:50:09.784Z,978.54
2019-01-15T05:51:09.766Z,978.54
2019-01-15T05:52:09.751Z,978.53
2019-01-15T05:53:09.736Z,978.60
2019-01-15T05:54:09.720Z,978.53
2019-01-15T05:55:09.706Z,978.51
2019-01-15T05:56:09.764Z,978.51
2019-01-15T05:57:09.671Z,978.43
2019-01-15T05:58:09.658Z,978.47
2019-01-15T05:59:09.637Z,978.47
2019-01-15T06:00:09.659Z,978.41
2019-01-15T06:01:09.608Z,978.46
2019-01-15T06:02:09.594Z,978.44
2019-01-15T06:03:09.571Z,978.46
2019-01-15T06:04:09.557Z,978.47
2019-01-15T06:05:09.546Z,978.50
2019-01-15T06:06:09.527Z,978.48
2019-01-15T06:07:09.511Z,978.53
2019-01-15T06:08:09.553Z,978.50
2019-01-15T06:09:09.478Z,978.55
2019-01-15T06:10:09.461Z,978.56
2019-01-15T06:11:09.448Z,978.48
2019-01-15T06:12:09.429Z,978.50
2019-01-15T06:13:09.415Z,978.47
2019-01-15T06:14:09.399Z,978.50
2019-01-15T06:15:09.381Z,978.47
2019-01-15T06:16:09.366Z,978.45
2019-01-15T06:17:09.349Z,978.47
2019-01-15T06:18:09.336Z,978.51
2019-01-15T06:19:09.319Z,978.45
2019-01-15T06:20:09.301Z,978.47
2019-01-15T06:21:09.287Z,978.46
2019-01-15T06:22:09.271Z,978.44
2019-01-15T06:23:09.254Z,978.53
2019-01-15T06:24:09.241Z,978.50
2019-01-15T06:25:09.226Z,978.47
2019-01-15T06:26:09.207Z,978.53
2019-01-15T06:27:09.191Z,978.50
2019-01-15T06:28:09.176Z,978.50
2019-01-15T06:29:09.212Z,978.50
2019-01-15T06:30:09.144Z,978.46
2019-01-15T06:31:09.127Z,978.47
2019-01-15T06:32:09.109Z,978.45
2019-01-15T06:33:09.096Z,978.38
2019-01-15T06:34:09.081Z,978.44
2019-01-15T06:35:09.070Z,978.43
2019-01-15T06:36:09.047Z,978.43
2019-01-15T06:37:09.031Z,978.42
2019-01-15T06:38:09.015Z,978.41
2019-01-15T06:39:09.001Z,978.38
2019-01-15T06:40:08.986Z,978.41
2019-01-15T06:41:08.971Z,978.35
2019-01-15T06:42:08.951Z,978.37
2019-01-15T06:43:08.935Z,978.34
2019-01-15T06:44:08.919Z,978.38
2019-01-15T06:45:08.902Z,978.33
2019-01-15T06:46:08.892Z,978.34
2019-01-15T06:47:08.872Z,978.33
2019-01-15T06:48:08.856Z,978.34
2019-01-15T06:49:08.842Z,978.36
2019-01-15T06:50:08.826Z,978.36
2019-01-15T06:51:08.808Z,978.38
2019-01-15T06:52:08.792Z,978.37
2019-01-15T06:53:08.778Z,978.39
2019-01-15T06:54:08.761Z,978.40
2019-01-15T06:55:08.746Z,978.40
2019-01-15T06:56:08.736Z,978.41
2019-01-15T06:57:08.715Z,978.37
2019-01-15T06:58:08.697Z,978.41
2019-01-15T06:59:08.684Z,978.40
2019-01-15T07:00:08.665Z,978.44
2019-01-15T07:01:08.649Z,978.46
2019-01-15T07:02:08.635Z,978.47
2019-01-15T07:03:08.617Z,978.49
2019-01-15T07:04:08.602Z,978.50
2019-01-15T07:05:08.589Z,978.50
2019-01-15T07:06:08.570Z,978.48
2019-01-15T07:07:08.555Z,978.46
2019-01-15T07:08:08.540Z,978.46
2019-01-15T07:09:08.522Z,978.41
2019-01-15T07:10:08.508Z,978.43
2019-01-15T07:11:08.492Z,978.42
2019-01-15T07:12:08.474Z,978.41
2019-01-15T07:13:08.459Z,978.48
2019-01-15T07:14:08.443Z,978.52
2019-01-15T07:15:08.430Z,978.53
2019-01-15T07:16:08.411Z,978.53
2019-01-15T07:17:08.396Z,978.61
2019-01-15T07:18:08.382Z,978.60
2019-01-15T07:19:08.364Z,978.65
2019-01-15T07:20:08.347Z,978.66
2019-01-15T07:21:08.332Z,978.72
2019-01-15T07:22:08.317Z,978.69
2019-01-15T07:23:08.298Z,978.72
2019-01-15T07:24:08.284Z,978.77
2019-01-15T07:25:08.269Z,978.78
2019-01-15T07:26:08.254Z,978.82
2019-01-15T07:27:08.243Z,978.87
2019-01-15T07:28:08.224Z,978.87
2019-01-15T07:29:08.206Z,978.86
2019-01-15T07:30:08.191Z,978.93
2019-01-15T07:31:08.175Z,978.95
2019-01-15T07:32:08.157Z,978.90
2019-01-15T07:33:08.142Z,978.94
2019-01-15T07:34:08.128Z,978.98
2019-01-15T07:35:08.112Z,979.00
2019-01-15T07:36:08.096Z,979.04
2019-01-15T07:37:08.082Z,979.05
2019-01-15T07:38:08.064Z,979.04
2019-01-15T07:39:08.049Z,979.08
2019-01-15T07:40:08.035Z,979.06
2019-01-15T07:41:08.018Z,979.05
2019-01-15T07:42:08.005Z,979.10
2019-01-15T07:43:07.989Z,979.11
2019-01-15T07:44:07.973Z,979.08
2019-01-15T07:45:07.955Z,979.11
2019-01-15T07:46:07.943Z,979.08
2019-01-15T07:47:07.924Z,979.12
2019-01-15T07:48:07.908Z,979.09
2019-01-15T07:49:07.894Z,979.08
2019-01-15T07:50:07.878Z,979.09
2019-01-15T07:51:07.861Z,979.10
2019-01-15T07:52:07.844Z,979.10
2019-01-15T07:53:07.831Z,979.05
2019-01-15T07:54:07.814Z,979.11
2019-01-15T07:55:07.802Z,979.09
2019-01-15T07:56:07.781Z,979.06
2019-01-15T07:57:07.767Z,979.07
2019-01-15T07:58:07.753Z,979.04
2019-01-15T07:59:07.740Z,979.05
2019-01-15T08:00:07.720Z,979.09
2019-01-15T08:01:07.705Z,979.06
2019-01-15T08:02:07.691Z,978.98
2019-01-15T08:03:07.674Z,978.99
2019-01-15T08:04:07.662Z,978.98
2019-01-15T08:05:07.646Z,979.01
2019-01-15T08:06:07.629Z,979.04
2019-01-15T08:07:07.613Z,979.02
2019-01-15T08:08:07.596Z,978.99
2019-01-15T08:09:07.582Z,979.02
2019-01-15T08:10:07.569Z,979.06
2019-01-15T08:11:07.549Z,979.03
2019-01-15T08:12:07.536Z,979.01
2019-01-15T08:13:07.519Z,979.01
2019-01-15T08:14:11.887Z,978.99
2019-01-15T08:15:07.486Z,978.99
2019-01-15T08:16:07.471Z,979.01
2019-01-15T08:17:07.455Z,979.02
2019-01-15T08:18:07.440Z,978.95
2019-01-15T08:19:07.425Z,978.94
2019-01-15T08:20:07.409Z,978.93
2019-01-15T08:21:07.395Z,978.92
2019-01-15T08:22:07.385Z,978.97
2019-01-15T08:23:07.363Z,978.92
2019-01-15T08:24:07.348Z,978.88
2019-01-15T08:25:07.330Z,978.91
2019-01-15T08:26:07.316Z,978.86
2019-01-15T08:27:07.302Z,978.87
2019-01-15T08:28:07.287Z,978.87
2019-01-15T08:29:07.268Z,978.86
2019-01-15T08:30:07.254Z,978.86
2019-01-15T08:31:07.238Z,978.83
2019-01-15T08:32:07.223Z,978.83
2019-01-15T08:33:07.207Z,978.84
2019-01-15T08:34:07.192Z,978.80
2019-01-15T08:35:07.176Z,978.82
2019-01-15T08:36:07.161Z,978.80
2019-01-15T08:37:07.146Z,978.82
2019-01-15T08:38:07.130Z,978.80
2019-01-15T08:39:07.116Z,978.79
2019-01-15T08:40:07.100Z,978.79
2019-01-15T08:41:07.090Z,978.81
2019-01-15T08:42:07.070Z,978.80
2019-01-15T08:43:07.051Z,978.84
2019-01-15T08:44:07.039Z,978.85
2019-01-15T08:45:07.023Z,978.87
2019-01-15T08:46:07.027Z,978.86
2019-01-15T08:47:06.994Z,978.81
2019-01-15T08:48:06.976Z,978.84
2019-01-15T08:49:06.960Z,978.87
2019-01-15T08:50:06.946Z,978.84
2019-01-15T08:51:06.929Z,978.89
2019-01-15T08:52:06.915Z,978.90
2019-01-15T08:53:06.901Z,978.92
2019-01-15T08:54:06.885Z,978.94
2019-01-15T08:55:06.868Z,978.92
2019-01-15T08:56:06.855Z,978.94
2019-01-15T08:57:06.839Z,978.92
2019-01-15T08:58:06.822Z,978.94
2019-01-15T08:59:06.808Z,978.99
2019-01-15T09:00:06.793Z,979.03
2019-01-15T09:01:06.778Z,979.05
2019-01-15T09:02:06.765Z,979.05
2019-01-15T09:03:06.749Z,979.11
2019-01-15T09:04:06.733Z,979.13
2019-01-15T09:05:06.718Z,979.15
2019-01-15T09:06:06.705Z,979.14
2019-01-15T09:07:06.688Z,979.11
2019-01-15T09:08:06.673Z,979.13
2019-01-15T09:09:06.659Z,979.13
2019-01-15T09:10:06.644Z,979.10
2019-01-15T09:11:06.632Z,979.07
2019-01-15T09:12:06.615Z,979.09
2019-01-15T09:13:06.598Z,979.07
2019-01-15T09:14:06.586Z,979.08
2019-01-15T09:15:06.568Z,979.08
2019-01-15T09:16:06.553Z,979.06
2019-01-15T09:17:11.000Z,979.05
2019-01-15T09:18:06.525Z,979.06
2019-01-15T09:19:06.511Z,979.08
2019-01-15T09:20:06.496Z,979.07
2019-01-15T09:21:06.482Z,979.09
2019-01-15T09:22:06.466Z,979.05
2019-01-15T09:23:06.451Z,979.05
2019-01-15T09:24:06.438Z,979.05
2019-01-15T09:25:06.427Z,979.03
2019-01-15T09:26:06.408Z,978.99
2019-01-15T09:27:06.393Z,979.01
2019-01-15T09:28:06.380Z,979.00
2019-01-15T09:29:06.365Z,979.01
2019-01-15T09:30:06.351Z,978.98
2019-01-15T09:31:06.335Z,978.96
2019-01-15T09:32:06.321Z,978.96
2019-01-15T09:33:06.309Z,978.90
2019-01-15T09:34:06.294Z,978.88
2019-01-15T09:35:06.278Z,978.85
2019-01-15T09:36:06.272Z,978.85
2019-01-15T09:37:06.251Z,978.86
2019-01-15T09:38:06.242Z,978.78
2019-01-15T09:39:06.220Z,978.78
2019-01-15T09:40:06.209Z,978.80
2019-01-15T09:41:06.193Z,978.82
2019-01-15T09:42:06.181Z,978.79
2019-01-15T09:43:06.169Z,978.84
2019-01-15T09:44:06.150Z,978.83
2019-01-15T09:45:06.137Z,978.81
2019-01-15T09:46:06.121Z,978.83
2019-01-15T09:47:06.107Z,978.83
2019-01-15T09:48:06.092Z,978.83
2019-01-15T09:49:06.077Z,978.87
2019-01-15T09:50:06.063Z,978.86
2019-01-15T09:51:06.057Z,978.91
2019-01-15T09:52:13.184Z,978.92
2019-01-15T09:53:06.020Z,978.95
2019-01-15T09:54:06.007Z,978.97
2019-01-15T09:55:05.992Z,978.94
2019-01-15T09:56:05.983Z,978.96
2019-01-15T09:57:05.967Z,978.97
2019-01-15T09:58:05.948Z,978.92
2019-01-15T09:59:05.940Z,978.97
2019-01-15T10:00:05.919Z,978.91
2019-01-15T10:01:05.906Z,978.95
2019-01-15T10:02:05.891Z,978.92
2019-01-15T10:03:05.875Z,978.96
2019-01-15T10:04:05.862Z,978.93
2019-01-15T10:05:05.848Z,978.94
2019-01-15T10:06:05.834Z,978.95
2019-01-15T10:07:05.817Z,978.91
2019-01-15T10:08:05.804Z,978.92
2019-01-15T10:09:05.790Z,978.90
2019-01-15T10:10:05.779Z,978.92
2019-01-15T10:11:05.761Z,978.92
2019-01-15T10:12:05.749Z,978.87
2019-01-15T10:13:05.734Z,978.87
2019-01-15T10:14:05.719Z,978.81
2019-01-15T10:15:05.704Z,978.85
2019-01-15T10:16:05.691Z,978.87
2019-01-15T10:17:05.676Z,978.86
2019-01-15T10:18:05.669Z,978.86
2019-01-15T10:19:05.648Z,978.83
2019-01-15T10:20:05.635Z,978.83
2019-01-15T10:21:05.619Z,978.83
2019-01-15T10:22:05.607Z,978.76
2019-01-15T10:23:05.591Z,978.77
2019-01-15T10:24:05.578Z,978.78
2019-01-15T10:25:05.563Z,978.78
2019-01-15T10:26:05.549Z,978.72
2019-01-15T10:27:05.536Z,978.77
2019-01-15T10:28:05.521Z,978.72
2019-01-15T10:29:05.510Z,978.73
2019-01-15T10:30:05.494Z,978.73
2019-01-15T10:31:05.479Z,978.69
2019-01-15T10:32:05.467Z,978.70
2019-01-15T10:33:05.453Z,978.69
2019-01-15T10:34:05.439Z,978.65
2019-01-15T10:35:05.423Z,978.64
2019-01-15T10:36:05.410Z,978.69
2019-01-15T10:37:05.396Z,978.67
2019-01-15T10:38:05.382Z,978.62
2019-01-15T10:39:05.367Z,978.62
2019-01-15T10:40:05.353Z,978.62
2019-01-15T10:41:05.340Z,978.58
2019-01-15T10:42:05.326Z,978.56
2019-01-15T10:43:05.312Z,978.56
2019-01-15T10:44:05.297Z,978.60
2019-01-15T10:45:05.284Z,978.59
2019-01-15T10:46:05.272Z,978.59
2019-01-15T10:47:05.258Z,978.55
2019-01-15T10:48:05.243Z,978.57
2019-01-15T10:49:05.231Z,978.58
2019-01-15T10:50:05.218Z,978.56
2019-01-15T10:51:05.200Z,978.59
2019-01-15T10:52:05.186Z,978.55
2019-01-15T10:53:05.175Z,978.56
2019-01-15T10:54:05.161Z,978.56
2019-01-15T10:55:05.146Z,978.52
2019-01-15T10:56:05.136Z,978.59
2019-01-15T10:57:05.120Z,978.55
2019-01-15T10:58:05.105Z,978.56
2019-01-15T10:59:05.090Z,978.55
2019-01-15T11:00:05.079Z,978.52
2019-01-15T11:01:05.065Z,978.56
2019-01-15T11:02:05.060Z,978.57
2019-01-15T11:03:05.037Z,978.55
2019-01-15T11:04:05.025Z,978.54
2019-01-15T11:05:05.011Z,978.47
2019-01-15T11:06:04.996Z,978.50
2019-01-15T11:07:05.035Z,978.48
2019-01-15T11:08:04.969Z,978.51
2019-01-15T11:09:04.958Z,978.51
2019-01-15T11:10:04.944Z,978.52
2019-01-15T11:11:04.935Z,978.50
2019-01-15T11:12:04.916Z,978.51
2019-01-15T11:13:04.903Z,978.55
2019-01-15T11:14:04.892Z,978.51
2019-01-15T11:15:04.878Z,978.55
2019-01-15T11:16:04.864Z,978.54
2019-01-15T11:17:04.849Z,978.52
2019-01-15T11:18:04.836Z,978.53
2019-01-15T11:19:04.821Z,978.54
2019-01-15T11:20:04.807Z,978.54
2019-01-15T11:21:04.794Z,978.57
2019-01-15T11:22:04.781Z,978.56
2019-01-15T11:23:04.769Z,978.56
2019-01-15T11:24:04.757Z,978.50
2019-01-15T11:25:04.742Z,978.53
2019-01-15T11:26:04.729Z,978.52
2019-01-15T11:27:04.715Z,978.49
2019-01-15T11:28:04.702Z,978.49
2019-01-15T11:29:04.688Z,978.50
2019-01-15T11:30:04.677Z,978.48
2019-01-15T11:31:04.666Z,978.43
2019-01-15T11:32:04.646Z,978.48
2019-01-15T11:33:04.633Z,978.44
2019-01-15T11:34:04.621Z,978.44
2019-01-15T11:35:04.608Z,978.46
2019-01-15T11:36:04.597Z,978.36
2019-01-15T11:37:04.581Z,978.38
2019-01-15T11:38:04.569Z,978.37
2019-01-15T11:39:04.556Z,978.38
2019-01-15T11:40:04.541Z,978.39
2019-01-15T11:41:04.528Z,978.38
2019-01-15T11:42:04.522Z,978.43
2019-01-15T11:43:04.501Z,978.38
2019-01-15T11:44:04.490Z,978.34
2019-01-15T11:45:04.487Z,978.35
2019-01-15T11:46:04.463Z,978.32
2019-01-15T11:47:04.450Z,978.35
2019-01-15T11:48:04.436Z,978.33
2019-01-15T11:49:04.421Z,978.34
2019-01-15T11:50:04.410Z,978.36
2019-01-15T11:51:04.396Z,978.36
2019-01-15T11:52:04.382Z,978.32
2019-01-15T11:53:04.367Z,978.34
2019-01-15T11:54:04.356Z,978.34
2019-01-15T11:55:04.339Z,978.36
2019-01-15T11:56:04.326Z,978.37
2019-01-15T11:57:04.312Z,978.33
2019-01-15T11:58:04.301Z,978.38
2019-01-15T11:59:04.287Z,978.36
2019-01-15T12:00:04.272Z,978.35
2019-01-15T12:01:04.260Z,978.35
2019-01-15T12:02:04.245Z,978.35
2019-01-15T12:03:04.232Z,978.31
2019-01-15T12:04:04.219Z,978.34
2019-01-15T12:05:04.205Z,978.38
2019-01-15T12:06:04.194Z,978.38
2019-01-15T12:07:04.179Z,978.37
2019-01-15T12:08:04.167Z,978.37
2019-01-15T12:09:04.152Z,978.40
2019-01-15T12:10:04.138Z,978.34
2019-01-15T12:11:04.127Z,978.38
2019-01-15T12:12:04.109Z,978.33
2019-01-15T12:13:04.098Z,978.29
2019-01-15T12:14:04.087Z,978.30
2019-01-15T12:15:10.613Z,978.32
2019-01-15T12:16:04.055Z,978.32
2019-01-15T12:17:04.041Z,978.31
2019-01-15T12:18:04.030Z,978.32
2019-01-15T12:19:04.014Z,978.33
2019-01-15T12:20:03.999Z,978.31
2019-01-15T12:21:03.988Z,978.28
2019-01-15T12:22:03.974Z,978.22
2019-01-15T12:23:03.958Z,978.23
2019-01-15T12:24:05.249Z,978.20
2019-01-15T12:25:03.930Z,978.21
2019-01-15T12:26:03.919Z,978.21
2019-01-15T12:27:03.904Z,978.24
2019-01-15T12:28:04.093Z,978.22
2019-01-15T12:29:03.875Z,978.17